createdAt,value
2017-04-25T00:00:21.484Z,80.10
2017-04-25T00:01:20.578Z,80.60
2017-04-25T00:02:19.696Z,80.50
2017-04-25T00:03:18.816Z,80.60
2017-04-25T00:04:17.916Z,80.60
2017-04-25T00:05:17.028Z,80.90
2017-04-25T00:06:16.865Z,80.90
2017-04-25T00:07:16.036Z,80.70
2017-04-25T00:08:15.166Z,80.50
2017-04-25T00:09:15.076Z,80.50
2017-04-25T00:10:14.943Z,80.60
2017-04-25T00:11:14.026Z,80.60
2017-04-25T00:12:13.095Z,80.30
2017-04-25T00:13:12.184Z,80.50
2017-04-25T00:14:11.200Z,80.60
2017-04-25T00:15:10.432Z,80.50
2017-04-25T00:16:09.448Z,80.20
2017-04-25T00:17:09.357Z,80.10
2017-04-25T00:18:08.547Z,80.30
2017-04-25T00:19:07.832Z,80.10
2017-04-25T00:20:06.867Z,80.10
2017-04-25T00:21:06.021Z,80.50
2017-04-25T00:22:05.158Z,80.50
2017-04-25T00:23:04.225Z,80.40
2017-04-25T00:24:03.416Z,80.70
2017-04-25T00:25:03.336Z,80.30
2017-04-25T00:26:02.788Z,80.30
2017-04-25T00:27:03.585Z,80.40
2017-04-25T00:28:03.371Z,80.50
2017-04-25T00:29:03.096Z,80.60
2017-04-25T00:30:02.681Z,81.00
2017-04-25T00:31:02.212Z,80.80
2017-04-25T00:32:02.048Z,80.90
2017-04-25T00:33:01.615Z,80.90
2017-04-25T00:34:01.252Z,80.80
2017-04-25T00:35:01.435Z,81.40
2017-04-25T00:36:01.119Z,80.80
2017-04-25T00:37:00.851Z,81.60
2017-04-25T00:38:01.402Z,81.20
2017-04-25T00:39:00.876Z,81.00
2017-04-25T00:40:00.648Z,80.60
2017-04-25T00:41:01.130Z,80.60
2017-04-25T00:42:00.926Z,81.10
2017-04-25T00:43:01.375Z,81.30
2017-04-25T00:44:01.051Z,81.20
2017-04-25T00:45:00.941Z,81.20
2017-04-25T00:46:00.628Z,81.60
2017-04-25T00:46:59.752Z,81.60
2017-04-25T00:47:58.876Z,81.70
2017-04-25T00:48:57.920Z,81.60
2017-04-25T00:49:57.069Z,81.80
2017-04-25T00:50:56.215Z,81.60
2017-04-25T00:51:55.404Z,81.40
2017-04-25T00:52:54.553Z,81.40
2017-04-25T00:53:53.631Z,81.60
2017-04-25T00:54:52.725Z,82.30
2017-04-25T00:55:51.863Z,81.60
2017-04-25T00:56:50.990Z,81.30
2017-04-25T00:57:50.088Z,82.00
2017-04-25T00:58:49.169Z,81.80
2017-04-25T00:59:48.992Z,81.50
2017-04-25T01:00:48.111Z,81.50
2017-04-25T01:01:47.248Z,81.80
2017-04-25T01:02:46.392Z,82.00
2017-04-25T01:03:45.520Z,82.40
2017-04-25T01:04:44.732Z,82.30
2017-04-25T01:05:43.892Z,82.60
2017-04-25T01:06:42.998Z,82.50
2017-04-25T01:07:42.148Z,82.50
2017-04-25T01:08:41.233Z,82.70
2017-04-25T01:09:40.299Z,82.70
2017-04-25T01:10:39.351Z,82.90
2017-04-25T01:11:39.080Z,83.00
2017-04-25T01:12:38.136Z,83.10
2017-04-25T01:13:37.208Z,83.20
2017-04-25T01:14:37.006Z,83.20
2017-04-25T01:15:36.945Z,83.20
2017-04-25T01:16:36.152Z,83.30
2017-04-25T01:17:35.236Z,83.10
2017-04-25T01:18:34.501Z,83.10
2017-04-25T01:19:33.583Z,82.80
2017-04-25T01:20:33.639Z,82.90
2017-04-25T01:21:33.479Z,83.30
2017-04-25T01:22:33.108Z,83.60
2017-04-25T01:23:33.977Z,83.40
2017-04-25T01:24:33.583Z,83.20
2017-04-25T01:25:33.210Z,83.10
2017-04-25T01:26:33.268Z,83.50
2017-04-25T01:27:32.745Z,82.20
2017-04-25T01:28:32.328Z,82.30
2017-04-25T01:29:32.595Z,82.90
2017-04-25T01:30:33.089Z,83.10
2017-04-25T01:31:32.164Z,83.50
2017-04-25T01:32:31.879Z,83.20
2017-04-25T01:33:32.236Z,83.00
2017-04-25T01:34:31.896Z,82.90
2017-04-25T01:35:32.129Z,83.00
2017-04-25T01:36:31.796Z,83.40
2017-04-25T01:37:30.899Z,83.90
2017-04-25T01:38:30.409Z,83.40
2017-04-25T01:39:29.523Z,83.50
2017-04-25T01:40:28.684Z,83.30
2017-04-25T01:41:27.782Z,83.20
2017-04-25T01:42:27.595Z,83.10
2017-04-25T01:43:26.788Z,83.20
2017-04-25T01:44:25.864Z,83.00
2017-04-25T01:45:25.033Z,82.70
2017-04-25T01:46:25.284Z,82.60
2017-04-25T01:47:25.230Z,82.80
2017-04-25T01:48:25.617Z,82.80
2017-04-25T01:49:24.792Z,83.40
2017-04-25T01:50:23.975Z,83.50
2017-04-25T01:51:23.120Z,83.00
2017-04-25T01:52:22.320Z,82.80
2017-04-25T01:53:21.383Z,83.00
2017-04-25T01:54:20.498Z,83.30
2017-04-25T01:55:19.653Z,83.20
2017-04-25T01:56:18.898Z,83.00
2017-04-25T01:57:17.911Z,83.10
2017-04-25T01:58:16.956Z,83.40
2017-04-25T01:59:16.791Z,83.20
2017-04-25T02:00:15.922Z,83.50
2017-04-25T02:01:15.133Z,83.80
2017-04-25T02:02:14.238Z,83.80
2017-04-25T02:03:13.328Z,83.70
2017-04-25T02:04:12.403Z,83.90
2017-04-25T02:05:11.511Z,84.10
2017-04-25T02:06:11.372Z,84.20
2017-04-25T02:07:10.589Z,84.10
2017-04-25T02:08:10.440Z,83.90
2017-04-25T02:09:09.551Z,84.00
2017-04-25T02:10:08.632Z,84.10
2017-04-25T02:11:07.729Z,84.10
2017-04-25T02:12:07.544Z,83.80
2017-04-25T02:13:06.643Z,83.90
2017-04-25T02:14:05.748Z,84.10
2017-04-25T02:15:04.840Z,84.30
2017-04-25T02:16:04.695Z,84.20
2017-04-25T02:17:03.757Z,84.30
2017-04-25T02:18:03.043Z,84.10
2017-04-25T02:19:02.219Z,83.90
2017-04-25T02:20:01.990Z,83.90
2017-04-25T02:21:02.368Z,83.90
2017-04-25T02:22:01.984Z,83.70
2017-04-25T02:23:02.796Z,83.80
2017-04-25T02:24:02.212Z,84.10
2017-04-25T02:25:02.732Z,84.20
2017-04-25T02:26:02.227Z,84.20
2017-04-25T02:27:01.948Z,84.10
2017-04-25T02:28:01.444Z,84.70
2017-04-25T02:29:00.834Z,84.80
2017-04-25T02:29:59.951Z,84.50
2017-04-25T02:30:59.721Z,84.30
2017-04-25T02:31:58.864Z,84.20
2017-04-25T02:32:57.948Z,84.10
2017-04-25T02:33:57.060Z,84.10
2017-04-25T02:34:56.172Z,83.90
2017-04-25T02:35:55.264Z,84.40
2017-04-25T02:36:54.468Z,83.90
2017-04-25T02:37:53.563Z,84.40
2017-04-25T02:38:52.644Z,84.30
2017-04-25T02:39:51.769Z,83.70
2017-04-25T02:40:50.944Z,84.10
2017-04-25T02:41:50.835Z,84.40
2017-04-25T02:42:50.678Z,84.20
2017-04-25T02:43:49.780Z,84.20
2017-04-25T02:44:48.919Z,84.40
2017-04-25T02:45:48.018Z,84.40
2017-04-25T02:46:47.104Z,84.40
2017-04-25T02:47:46.169Z,84.40
2017-04-25T02:48:45.315Z,84.20
2017-04-25T02:49:44.380Z,84.20
2017-04-25T02:50:43.566Z,84.50
2017-04-25T02:51:42.680Z,84.20
2017-04-25T02:52:41.723Z,84.40
2017-04-25T02:53:41.550Z,84.10
2017-04-25T02:54:40.720Z,84.10
2017-04-25T02:55:39.794Z,83.80
2017-04-25T02:56:38.886Z,83.80
2017-04-25T02:57:37.936Z,84.00
2017-04-25T02:58:37.763Z,84.30
2017-04-25T02:59:36.831Z,84.30
2017-04-25T03:00:36.740Z,83.80
2017-04-25T03:01:35.896Z,84.00
2017-04-25T03:02:35.744Z,83.90
2017-04-25T03:03:34.872Z,84.20
2017-04-25T03:04:34.793Z,84.10
2017-04-25T03:05:33.872Z,84.30
2017-04-25T03:06:33.930Z,84.30
2017-04-25T03:07:34.054Z,84.30
2017-04-25T03:08:33.868Z,84.40
2017-04-25T03:09:33.827Z,84.50
2017-04-25T03:10:33.196Z,84.10
2017-04-25T03:11:33.325Z,83.70
2017-04-25T03:13:33.309Z,83.70
2017-04-25T03:14:32.961Z,84.30
2017-04-25T03:15:32.656Z,84.30
2017-04-25T03:16:32.064Z,85.10
2017-04-25T03:17:31.916Z,85.20
2017-04-25T03:18:31.620Z,85.60
2017-04-25T03:19:31.382Z,84.40
2017-04-25T03:20:31.892Z,84.80
2017-04-25T03:21:32.279Z,84.70
2017-04-25T03:22:32.079Z,84.90
2017-04-25T03:23:31.740Z,85.90
2017-04-25T03:24:31.456Z,85.10
2017-04-25T03:25:30.801Z,85.50
2017-04-25T03:26:29.880Z,84.90
2017-04-25T03:27:29.002Z,84.80
2017-04-25T03:28:28.032Z,85.20
2017-04-25T03:29:27.104Z,85.20
2017-04-25T03:30:26.127Z,84.50
2017-04-25T03:31:25.272Z,84.10
2017-04-25T03:32:24.353Z,84.20
2017-04-25T03:33:23.485Z,84.20
2017-04-25T03:34:22.608Z,83.50
2017-04-25T03:35:21.637Z,84.50
2017-04-25T03:36:21.323Z,84.00
2017-04-25T03:37:20.439Z,84.00
2017-04-25T03:38:20.308Z,84.70
2017-04-25T03:39:19.384Z,84.60
2017-04-25T03:40:18.493Z,84.40
2017-04-25T03:41:18.235Z,84.10
2017-04-25T03:42:17.291Z,84.50
2017-04-25T03:43:16.434Z,84.40
2017-04-25T03:44:15.544Z,85.30
2017-04-25T03:45:14.727Z,84.50
2017-04-25T03:46:13.835Z,85.10
2017-04-25T03:47:12.983Z,84.80
2017-04-25T03:48:11.988Z,84.50
2017-04-25T03:49:10.956Z,84.20
2017-04-25T03:50:09.965Z,84.80
2017-04-25T03:51:09.188Z,84.00
2017-04-25T03:52:08.272Z,83.90
2017-04-25T03:53:07.381Z,83.80
2017-04-25T03:54:06.532Z,84.20
2017-04-25T03:55:05.723Z,83.90
2017-04-25T03:56:04.828Z,85.10
2017-04-25T03:57:04.700Z,85.00
2017-04-25T03:58:03.792Z,84.00
2017-04-25T03:59:03.192Z,84.00
2017-04-25T04:00:02.628Z,84.10
2017-04-25T04:01:03.088Z,83.80
2017-04-25T04:02:02.581Z,83.80
2017-04-25T04:03:02.521Z,83.80
2017-04-25T04:04:03.389Z,84.40
2017-04-25T04:05:03.034Z,84.00
2017-04-25T04:06:03.280Z,84.80
2017-04-25T04:07:02.796Z,84.70
2017-04-25T04:08:02.249Z,85.00
2017-04-25T04:09:01.932Z,84.80
2017-04-25T04:10:01.311Z,84.70
2017-04-25T04:11:00.940Z,84.80
2017-04-25T04:12:00.624Z,84.80
2017-04-25T04:12:59.697Z,84.90
2017-04-25T04:13:58.816Z,84.80
2017-04-25T04:14:57.880Z,85.10
2017-04-25T04:15:57.132Z,84.40
2017-04-25T04:16:59.588Z,84.30
2017-04-25T04:17:58.731Z,85.30
2017-04-25T04:18:58.560Z,84.50
2017-04-25T04:19:57.670Z,84.90
2017-04-25T04:20:56.798Z,85.00
2017-04-25T04:21:56.896Z,84.80
2017-04-25T04:22:56.675Z,85.10
2017-04-25T04:24:55.357Z,84.60
2017-04-25T04:25:55.154Z,85.30
2017-04-25T04:26:55.015Z,85.00
2017-04-25T04:27:54.088Z,85.10
2017-04-25T04:28:53.244Z,85.00
2017-04-25T04:29:52.364Z,84.80
2017-04-25T04:30:51.519Z,85.20
2017-04-25T04:31:50.620Z,85.20
2017-04-25T04:32:49.769Z,85.50
2017-04-25T04:33:48.909Z,85.80
2017-04-25T04:34:48.119Z,85.30
2017-04-25T04:35:47.276Z,85.20
2017-04-25T04:36:46.311Z,85.40
2017-04-25T04:37:45.352Z,85.40
2017-04-25T04:38:44.477Z,85.20
2017-04-25T04:39:43.566Z,85.20
2017-04-25T04:40:42.632Z,85.40
2017-04-25T04:41:41.684Z,85.00
2017-04-25T04:42:40.829Z,84.40
2017-04-25T04:43:40.645Z,84.70
2017-04-25T04:44:39.773Z,84.70
2017-04-25T04:45:38.924Z,84.90
2017-04-25T04:46:38.008Z,85.40
2017-04-25T04:47:37.068Z,85.30
2017-04-25T04:48:36.169Z,85.60
2017-04-25T04:49:35.228Z,85.60
2017-04-25T04:50:34.270Z,85.00
2017-04-25T04:51:33.384Z,85.10
2017-04-25T04:52:33.020Z,85.20
2017-04-25T04:53:32.664Z,84.90
2017-04-25T04:54:32.119Z,85.20
2017-04-25T04:55:32.252Z,83.80
2017-04-25T04:56:32.119Z,79.50
2017-04-25T04:57:32.663Z,77.50
2017-04-25T04:58:31.944Z,77.40
2017-04-25T04:59:31.652Z,78.10
2017-04-25T05:00:31.272Z,76.70
2017-04-25T05:01:30.917Z,76.40
2017-04-25T05:02:29.970Z,75.20
2017-04-25T05:03:30.868Z,74.40
2017-04-25T05:04:30.008Z,75.00
2017-04-25T05:05:30.789Z,76.00
2017-04-25T05:06:30.984Z,76.90
2017-04-25T05:07:30.443Z,73.00
2017-04-25T05:08:29.642Z,72.90
2017-04-25T05:09:28.783Z,72.70
2017-04-25T05:10:27.848Z,72.70
2017-04-25T05:11:27.027Z,73.50
2017-04-25T05:12:26.042Z,73.10
2017-04-25T05:13:25.120Z,72.00
2017-04-25T05:14:24.235Z,72.20
2017-04-25T05:15:23.444Z,72.80
2017-04-25T05:16:22.562Z,73.70
2017-04-25T05:17:21.727Z,72.10
2017-04-25T05:18:20.831Z,73.30
2017-04-25T05:19:19.876Z,73.10
2017-04-25T05:20:19.045Z,74.00
2017-04-25T05:21:18.216Z,73.70
2017-04-25T05:22:17.296Z,73.00
2017-04-25T05:23:16.376Z,73.50
2017-04-25T05:24:15.454Z,74.70
2017-04-25T05:25:14.543Z,73.60
2017-04-25T05:26:13.639Z,73.70
2017-04-25T05:27:12.860Z,73.70
2017-04-25T05:28:12.024Z,72.90
2017-04-25T05:29:11.812Z,73.10
2017-04-25T05:30:10.863Z,72.70
2017-04-25T05:31:09.910Z,72.70
2017-04-25T05:32:08.998Z,72.80
2017-04-25T05:33:08.756Z,73.50
2017-04-25T05:34:07.829Z,72.00
2017-04-25T05:35:06.907Z,70.90
2017-04-25T05:37:05.523Z,70.70
2017-04-25T05:38:04.721Z,71.30
2017-04-25T05:39:03.908Z,72.50
2017-04-25T05:40:03.757Z,72.70
2017-04-25T05:41:02.942Z,71.90
2017-04-25T05:42:03.420Z,70.80
2017-04-25T05:43:02.766Z,70.50
2017-04-25T05:44:02.459Z,70.20
2017-04-25T05:45:01.571Z,70.00
2017-04-25T05:46:01.004Z,70.90
2017-04-25T05:47:01.584Z,71.30
2017-04-25T05:48:01.218Z,71.00
2017-04-25T05:49:02.253Z,69.70
2017-04-25T05:50:02.083Z,70.10
2017-04-25T05:51:01.724Z,71.00
2017-04-25T05:52:01.588Z,71.50
2017-04-25T05:53:02.072Z,70.40
2017-04-25T05:54:01.656Z,70.10
2017-04-25T05:55:01.232Z,70.00
2017-04-25T05:56:00.887Z,70.70
2017-04-25T05:57:00.052Z,71.80
2017-04-25T05:57:59.397Z,71.80
2017-04-25T05:58:58.412Z,72.70
2017-04-25T05:59:57.489Z,71.60
2017-04-25T06:00:56.528Z,71.80
2017-04-25T06:01:55.620Z,72.40
2017-04-25T06:02:54.579Z,72.20
2017-04-25T06:03:53.773Z,72.70
2017-04-25T06:04:52.864Z,71.50
2017-04-25T06:05:51.972Z,72.00
2017-04-25T06:06:51.080Z,72.00
2017-04-25T06:07:50.166Z,72.50
2017-04-25T06:08:49.261Z,71.70
2017-04-25T06:09:48.353Z,72.60
2017-04-25T06:10:47.340Z,72.50
2017-04-25T06:11:46.448Z,72.20
2017-04-25T06:12:45.471Z,72.20
2017-04-25T06:13:44.644Z,72.30
2017-04-25T06:14:43.760Z,72.30
2017-04-25T06:15:42.835Z,72.40
2017-04-25T06:16:41.991Z,72.50
2017-04-25T06:17:41.092Z,72.20
2017-04-25T06:18:40.227Z,72.90
2017-04-25T06:19:40.008Z,72.50
2017-04-25T06:20:39.064Z,72.20
2017-04-25T06:21:38.387Z,71.80
2017-04-25T06:22:38.228Z,72.30
2017-04-25T06:23:37.332Z,72.70
2017-04-25T06:24:36.408Z,72.60
2017-04-25T06:25:35.428Z,72.00
2017-04-25T06:26:34.555Z,72.60
2017-04-25T06:27:34.500Z,72.50
2017-04-25T06:28:34.293Z,72.70
2017-04-25T06:29:33.412Z,72.60
2017-04-25T06:30:33.232Z,72.40
2017-04-25T06:31:33.179Z,73.10
2017-04-25T06:32:32.753Z,73.30
2017-04-25T06:33:32.420Z,73.50
2017-04-25T06:34:31.531Z,74.20
2017-04-25T06:35:31.954Z,74.20
2017-04-25T06:36:31.336Z,74.30
2017-04-25T06:37:31.016Z,74.30
2017-04-25T06:38:31.460Z,74.30
2017-04-25T06:39:31.197Z,74.70
2017-04-25T06:40:31.063Z,74.60
2017-04-25T06:41:30.467Z,74.10
2017-04-25T06:42:29.509Z,73.70
2017-04-25T06:43:28.688Z,73.30
2017-04-25T06:44:27.763Z,73.20
2017-04-25T06:45:26.736Z,72.80
2017-04-25T06:46:25.796Z,72.40
2017-04-25T06:47:25.679Z,72.00
2017-04-25T06:48:24.736Z,71.30
2017-04-25T06:49:23.877Z,70.10
2017-04-25T06:50:22.962Z,69.80
2017-04-25T06:51:22.037Z,70.30
2017-04-25T06:52:21.131Z,69.90
2017-04-25T06:53:20.196Z,70.40
2017-04-25T06:54:19.228Z,71.30
2017-04-25T06:55:18.328Z,70.90
2017-04-25T06:56:18.120Z,71.50
2017-04-25T06:57:17.954Z,71.90
2017-04-25T06:58:17.001Z,72.20
2017-04-25T06:59:16.069Z,71.60
2017-04-25T07:00:15.928Z,71.80
2017-04-25T07:01:14.985Z,72.40
2017-04-25T07:02:14.142Z,72.50
2017-04-25T07:03:13.198Z,72.30
2017-04-25T07:04:12.288Z,72.60
2017-04-25T07:05:12.146Z,73.20
2017-04-25T07:06:11.203Z,72.90
2017-04-25T07:07:10.308Z,72.80
2017-04-25T07:08:09.414Z,72.90
2017-04-25T07:09:09.132Z,74.00
2017-04-25T07:10:08.153Z,72.80
2017-04-25T07:11:07.207Z,72.90
2017-04-25T07:12:06.285Z,72.90
2017-04-25T07:13:05.340Z,72.80
2017-04-25T07:14:04.467Z,72.50
2017-04-25T07:15:03.527Z,73.10
2017-04-25T07:16:03.544Z,72.80
2017-04-25T07:17:03.293Z,74.50
2017-04-25T07:18:03.004Z,74.50
2017-04-25T07:19:02.691Z,73.20
2017-04-25T07:20:02.028Z,72.30
2017-04-25T07:21:01.490Z,73.40
2017-04-25T07:22:01.087Z,72.40
2017-04-25T07:23:00.473Z,72.60
2017-04-25T07:23:59.641Z,70.90
2017-04-25T07:24:59.048Z,71.00
2017-04-25T07:25:58.169Z,70.50
2017-04-25T07:26:58.008Z,70.40
2017-04-25T07:27:57.817Z,70.70
2017-04-25T07:28:56.916Z,70.40
2017-04-25T07:29:55.982Z,70.20
2017-04-25T07:30:55.060Z,70.40
2017-04-25T07:31:54.171Z,68.90
2017-04-25T07:32:53.322Z,68.90
2017-04-25T07:33:52.435Z,69.30
2017-04-25T07:34:51.443Z,70.70
2017-04-25T07:35:50.507Z,68.30
2017-04-25T07:36:49.728Z,68.80
2017-04-25T07:37:49.628Z,69.00
2017-04-25T07:38:48.680Z,69.00
2017-04-25T07:39:47.996Z,69.00
2017-04-25T07:40:47.032Z,69.50
2017-04-25T07:41:46.050Z,69.40
2017-04-25T07:42:45.080Z,68.90
2017-04-25T07:43:44.206Z,68.80
2017-04-25T07:44:43.283Z,68.40
2017-04-25T07:45:42.452Z,68.20
2017-04-25T07:46:41.517Z,68.50
2017-04-25T07:47:41.516Z,67.90
2017-04-25T07:48:40.625Z,67.60
2017-04-25T07:49:39.752Z,68.30
2017-04-25T07:50:38.776Z,68.40
2017-04-25T07:51:37.893Z,68.50
2017-04-25T07:52:36.939Z,68.80
2017-04-25T07:53:35.999Z,69.40
2017-04-25T07:54:35.188Z,68.90
2017-04-25T07:55:34.291Z,68.40
2017-04-25T07:56:33.423Z,69.50
2017-04-25T07:57:33.048Z,68.20
2017-04-25T07:58:32.733Z,67.80
2017-04-25T07:59:32.092Z,67.90
2017-04-25T08:00:31.480Z,67.60
2017-04-25T08:01:30.932Z,68.00
2017-04-25T08:02:31.748Z,67.90
2017-04-25T08:03:31.540Z,67.30
2017-04-25T08:04:32.128Z,66.50
2017-04-25T08:05:32.126Z,66.80
2017-04-25T08:06:32.112Z,67.10
2017-04-25T08:07:31.620Z,66.20
2017-04-25T08:08:31.719Z,65.60
2017-04-25T08:09:31.468Z,66.70
2017-04-25T08:10:30.948Z,67.80
2017-04-25T08:11:30.609Z,68.00
2017-04-25T08:12:29.656Z,67.60
2017-04-25T08:13:28.783Z,67.00
2017-04-25T08:14:28.620Z,67.20
2017-04-25T08:15:27.576Z,67.10
2017-04-25T08:16:26.676Z,67.40
2017-04-25T08:17:25.853Z,66.70
2017-04-25T08:18:24.939Z,66.30
2017-04-25T08:19:24.027Z,66.30
2017-04-25T08:20:23.280Z,65.90
2017-04-25T08:21:22.375Z,67.40
2017-04-25T08:22:21.458Z,67.80
2017-04-25T08:23:20.665Z,68.50
2017-04-25T08:24:19.737Z,67.50
2017-04-25T08:25:18.884Z,66.00
2017-04-25T08:26:17.987Z,64.60
2017-04-25T08:27:17.048Z,64.30
2017-04-25T08:28:16.120Z,65.10
2017-04-25T08:29:15.270Z,65.20
2017-04-25T08:30:14.288Z,65.30
2017-04-25T08:31:13.252Z,64.90
2017-04-25T08:32:12.373Z,64.80
2017-04-25T08:33:11.399Z,64.60
2017-04-25T08:34:10.577Z,65.40
2017-04-25T08:35:10.384Z,65.10
2017-04-25T08:36:09.532Z,64.60
2017-04-25T08:37:09.376Z,63.90
2017-04-25T08:38:08.452Z,63.60
2017-04-25T08:39:07.544Z,64.40
2017-04-25T08:40:06.940Z,64.50
2017-04-25T08:41:06.002Z,66.70
2017-04-25T08:42:05.064Z,64.70
2017-04-25T08:43:04.111Z,64.30
2017-04-25T08:44:03.964Z,62.70
2017-04-25T08:45:03.555Z,64.50
2017-04-25T08:46:03.468Z,64.20
2017-04-25T08:47:03.644Z,63.20
2017-04-25T08:48:03.421Z,61.80
2017-04-25T08:49:03.060Z,63.10
2017-04-25T08:50:02.740Z,62.90
2017-04-25T08:51:02.899Z,63.40
2017-04-25T08:52:03.014Z,63.50
2017-04-25T08:53:02.956Z,63.10
2017-04-25T08:54:02.653Z,62.80
2017-04-25T08:55:02.087Z,63.00
2017-04-25T08:56:01.728Z,62.60
2017-04-25T08:57:01.403Z,64.60
2017-04-25T08:58:00.440Z,63.20
2017-04-25T08:59:01.036Z,63.50
2017-04-25T09:00:02.191Z,63.80
2017-04-25T09:01:01.917Z,63.00
2017-04-25T09:02:01.365Z,62.60
2017-04-25T09:03:00.453Z,63.30
2017-04-25T09:04:00.836Z,63.30
2017-04-25T09:05:01.072Z,63.70
2017-04-25T09:06:01.198Z,63.10
2017-04-25T09:07:01.042Z,63.50
2017-04-25T09:08:01.554Z,62.70
2017-04-25T09:09:01.789Z,62.00
2017-04-25T09:10:01.641Z,64.30
2017-04-25T09:11:01.708Z,64.60
2017-04-25T09:12:01.592Z,62.70
2017-04-25T09:13:01.053Z,64.20
2017-04-25T09:14:01.614Z,64.00
2017-04-25T09:15:01.266Z,61.80
2017-04-25T09:16:00.996Z,62.50
2017-04-25T09:17:00.022Z,62.10
2017-04-25T09:18:00.028Z,61.40
2017-04-25T09:19:00.561Z,61.90
2017-04-25T09:19:59.713Z,62.50
2017-04-25T09:20:59.581Z,61.30
2017-04-25T09:21:58.748Z,60.70
2017-04-25T09:22:57.857Z,59.30
2017-04-25T09:23:57.698Z,60.60
2017-04-25T09:24:56.797Z,59.60
2017-04-25T09:25:55.940Z,60.30
2017-04-25T09:26:55.044Z,59.00
2017-04-25T09:27:54.163Z,58.10
2017-04-25T09:28:53.174Z,59.00
2017-04-25T09:29:52.268Z,57.70
2017-04-25T09:30:51.427Z,57.30
2017-04-25T09:31:50.464Z,57.70
2017-04-25T09:32:49.536Z,58.40
2017-04-25T09:33:48.575Z,56.60
2017-04-25T09:34:47.887Z,55.80
2017-04-25T09:35:47.660Z,56.90
2017-04-25T09:36:46.763Z,57.70
2017-04-25T09:37:45.827Z,56.90
2017-04-25T09:38:44.937Z,54.60
2017-04-25T09:39:44.096Z,54.20
2017-04-25T09:40:43.168Z,54.30
2017-04-25T09:41:42.247Z,53.10
2017-04-25T09:42:41.818Z,52.80
2017-04-25T09:43:40.908Z,52.20
2017-04-25T09:44:40.005Z,52.30
2017-04-25T09:45:39.176Z,53.30
2017-04-25T09:46:38.296Z,53.40
2017-04-25T09:47:37.400Z,54.40
2017-04-25T09:48:37.284Z,52.50
2017-04-25T09:49:37.112Z,51.70
2017-04-25T09:50:36.136Z,52.90
2017-04-25T09:51:35.212Z,53.70
2017-04-25T09:52:34.366Z,52.20
2017-04-25T09:53:33.436Z,53.60
2017-04-25T09:54:32.948Z,53.80
2017-04-25T09:55:32.627Z,52.30
2017-04-25T09:56:32.098Z,51.70
2017-04-25T09:57:32.164Z,52.10
2017-04-25T09:58:31.476Z,52.70
2017-04-25T09:59:31.355Z,51.50
2017-04-25T10:00:30.799Z,50.90
2017-04-25T10:01:29.768Z,50.20
2017-04-25T10:02:28.912Z,51.30
2017-04-25T10:03:27.980Z,51.30
2017-04-25T10:04:27.774Z,49.00
2017-04-25T10:05:27.592Z,50.20
2017-04-25T10:06:26.672Z,49.90
2017-04-25T10:07:25.752Z,49.30
2017-04-25T10:08:24.825Z,49.10
2017-04-25T10:09:23.872Z,50.30
2017-04-25T10:10:23.011Z,50.10
2017-04-25T10:11:22.129Z,49.00
2017-04-25T10:12:21.196Z,49.40
2017-04-25T10:13:20.307Z,50.00
2017-04-25T10:14:20.164Z,50.00
2017-04-25T10:15:19.284Z,48.50
2017-04-25T10:16:18.317Z,47.30
2017-04-25T10:17:17.296Z,48.40
2017-04-25T10:18:16.315Z,48.80
2017-04-25T10:19:16.164Z,49.80
2017-04-25T10:20:15.167Z,50.00
2017-04-25T10:21:14.274Z,49.50
2017-04-25T10:22:14.120Z,49.00
2017-04-25T10:23:13.205Z,49.00
2017-04-25T10:24:12.341Z,48.70
2017-04-25T10:25:11.414Z,49.50
2017-04-25T10:26:10.500Z,48.60
2017-04-25T10:27:09.515Z,47.90
2017-04-25T10:28:08.424Z,46.90
2017-04-25T10:29:08.178Z,48.80
2017-04-25T10:30:07.328Z,47.40
2017-04-25T10:31:06.356Z,47.00
2017-04-25T10:32:05.431Z,47.00
2017-04-25T10:33:04.576Z,45.70
2017-04-25T10:34:03.652Z,45.30
2017-04-25T10:35:03.277Z,46.40
2017-04-25T10:36:03.692Z,46.90
2017-04-25T10:37:03.448Z,46.80
2017-04-25T10:38:03.167Z,45.10
2017-04-25T10:39:02.769Z,46.30
2017-04-25T10:40:02.003Z,46.30
2017-04-25T10:41:01.767Z,47.00
2017-04-25T10:42:01.619Z,47.50
2017-04-25T10:43:01.189Z,47.60
2017-04-25T10:44:01.061Z,47.80
2017-04-25T10:45:01.540Z,47.90
2017-04-25T10:46:01.635Z,46.60
2017-04-25T10:47:00.928Z,47.70
2017-04-25T10:47:59.989Z,47.30
2017-04-25T10:48:59.844Z,48.60
2017-04-25T10:49:58.926Z,49.30
2017-04-25T10:50:57.995Z,49.60
2017-04-25T10:51:57.935Z,49.50
2017-04-25T10:52:57.039Z,48.80
2017-04-25T10:53:56.682Z,49.50
2017-04-25T10:54:55.748Z,48.40
2017-04-25T10:55:55.598Z,48.00
2017-04-25T10:56:54.640Z,47.60
2017-04-25T10:57:53.748Z,46.70
2017-04-25T10:58:52.889Z,47.30
2017-04-25T10:59:51.885Z,47.50
2017-04-25T11:00:50.873Z,47.50
2017-04-25T11:01:49.992Z,46.20
2017-04-25T11:02:49.824Z,46.40
2017-04-25T11:03:48.968Z,47.50
2017-04-25T11:04:48.860Z,48.00
2017-04-25T11:05:48.265Z,48.90
2017-04-25T11:06:48.059Z,49.60
2017-04-25T11:07:47.872Z,49.00
2017-04-25T11:08:46.999Z,49.30
2017-04-25T11:09:46.060Z,48.00
2017-04-25T11:10:45.148Z,49.10
2017-04-25T11:11:44.975Z,49.60
2017-04-25T11:12:44.020Z,48.40
2017-04-25T11:13:43.119Z,48.20
2017-04-25T11:14:42.174Z,49.10
2017-04-25T11:15:41.220Z,49.00
2017-04-25T11:16:40.352Z,48.70
2017-04-25T11:17:39.492Z,49.20
2017-04-25T11:18:38.603Z,49.20
2017-04-25T11:19:38.542Z,48.60
2017-04-25T11:20:37.705Z,49.00
2017-04-25T11:21:36.732Z,48.70
2017-04-25T11:22:35.880Z,49.10
2017-04-25T11:23:34.976Z,48.60
2017-04-25T11:24:34.104Z,48.90
2017-04-25T11:25:33.967Z,48.80
2017-04-25T11:26:34.311Z,48.60
2017-04-25T11:28:33.949Z,48.50
2017-04-25T11:29:33.864Z,48.70
2017-04-25T11:30:33.571Z,48.10
2017-04-25T11:31:33.204Z,49.50
2017-04-25T11:32:32.707Z,48.90
2017-04-25T11:33:33.318Z,47.90
2017-04-25T11:34:32.640Z,48.30
2017-04-25T11:35:32.751Z,48.20
2017-04-25T11:36:32.322Z,48.10
2017-04-25T11:37:32.156Z,48.30
2017-04-25T11:38:32.488Z,49.00
2017-04-25T11:46:32.716Z,49.70
2017-04-25T11:47:32.150Z,48.70
2017-04-25T11:48:31.549Z,49.30
2017-04-25T11:49:31.195Z,49.80
2017-04-25T11:50:31.012Z,49.50
2017-04-25T11:51:30.735Z,50.70
2017-04-25T12:01:33.300Z,47.60
2017-04-25T12:02:32.811Z,49.80
2017-04-25T12:03:32.467Z,49.50
2017-04-25T12:04:32.147Z,48.40
2017-04-25T12:05:31.647Z,48.80
2017-04-25T12:06:31.100Z,48.40
2017-04-25T12:07:30.754Z,46.40
2017-04-25T12:08:29.904Z,47.70
2017-04-25T12:09:28.999Z,48.30
2017-04-25T12:10:28.036Z,47.60
2017-04-25T12:11:27.264Z,46.50
2017-04-25T12:12:26.367Z,46.40
2017-04-25T12:13:26.273Z,46.60
2017-04-25T12:14:26.236Z,44.60
2017-04-25T12:15:25.388Z,45.20
2017-04-25T12:16:24.568Z,44.10
2017-04-25T12:17:23.772Z,45.50
2017-04-25T12:22:22.355Z,45.00
2017-04-25T12:23:21.515Z,43.60
2017-04-25T12:24:20.608Z,43.60
2017-04-25T12:25:19.727Z,43.80
2017-04-25T12:26:19.028Z,43.80
2017-04-25T12:27:18.152Z,43.80
2017-04-25T12:28:17.276Z,43.90
2017-04-25T12:29:16.368Z,45.90
2017-04-25T12:30:15.472Z,47.20
2017-04-25T12:31:14.616Z,45.70
2017-04-25T12:32:13.739Z,45.90
2017-04-25T12:33:12.849Z,46.30
2017-04-25T12:34:12.692Z,45.50
2017-04-25T12:35:11.849Z,45.10
2017-04-25T12:36:10.976Z,44.80
2017-04-25T12:37:10.025Z,45.30
2017-04-25T12:38:09.187Z,44.70
2017-04-25T12:39:08.219Z,45.10
2017-04-25T12:40:07.311Z,45.10
2017-04-25T12:41:06.423Z,45.80
2017-04-25T12:42:05.663Z,46.00
2017-04-25T12:44:04.620Z,46.40
2017-04-25T12:45:03.787Z,46.60
2017-04-25T12:46:03.384Z,44.60
2017-04-25T12:47:02.733Z,44.40
2017-04-25T12:48:02.323Z,44.80
2017-04-25T12:49:02.445Z,45.00
2017-04-25T12:50:02.389Z,45.30
2017-04-25T12:51:02.060Z,44.40
2017-04-25T12:52:01.820Z,44.20
2017-04-25T12:53:01.551Z,44.00
2017-04-25T12:54:01.316Z,43.10
2017-04-25T12:55:01.229Z,44.70
2017-04-25T12:56:00.980Z,44.60
2017-04-25T12:57:00.027Z,43.60
2017-04-25T12:57:59.112Z,43.20
2017-04-25T12:58:58.199Z,43.30
2017-04-25T12:59:57.261Z,44.10
2017-04-25T13:01:56.732Z,43.90
2017-04-25T13:02:55.819Z,43.10
2017-04-25T13:03:55.001Z,41.90
2017-04-25T13:04:54.164Z,41.20
2017-04-25T13:05:53.347Z,40.60
2017-04-25T13:06:52.484Z,40.00
2017-04-25T13:07:52.409Z,40.50
2017-04-25T13:08:51.512Z,41.50
2017-04-25T13:09:50.660Z,39.80
2017-04-25T13:10:49.747Z,40.70